createdAt,value
2018-12-29T00:01:33.859Z,14.40
2018-12-29T00:04:21.485Z,11.97
2018-12-29T00:07:09.609Z,12.00
2018-12-29T00:09:57.723Z,11.30
2018-12-29T00:12:46.194Z,11.08
2018-12-29T00:15:34.377Z,10.95
2018-12-29T00:18:22.192Z,11.50
2018-12-29T00:21:10.449Z,11.15
2018-12-29T00:23:58.240Z,11.12
2018-12-29T00:26:45.907Z,10.48
2018-12-29T00:29:33.634Z,10.63
2018-12-29T00:32:21.349Z,10.60
2018-12-29T00:35:09.302Z,11.70
2018-12-29T00:37:57.042Z,11.12
2018-12-29T00:40:44.926Z,11.70
2018-12-29T00:43:32.811Z,11.05
2018-12-29T00:46:20.538Z,11.30
2018-12-29T00:49:08.177Z,12.33
2018-12-29T00:51:55.888Z,10.55
2018-12-29T00:54:43.934Z,10.75
2018-12-29T00:57:31.670Z,10.43
2018-12-29T01:00:19.417Z,9.50
2018-12-29T01:03:07.042Z,10.58
2018-12-29T01:05:54.684Z,10.15
2018-12-29T01:08:42.456Z,11.30
2018-12-29T01:11:30.158Z,10.63
2018-12-29T01:14:17.867Z,10.75
2018-12-29T01:17:05.642Z,10.60
2018-12-29T01:19:53.320Z,10.58
2018-12-29T01:22:33.995Z,9.83
2018-12-29T01:25:14.697Z,11.22
2018-12-29T01:27:54.129Z,13.70
2018-12-29T01:30:42.506Z,13.05
2018-12-29T01:33:30.948Z,12.63
2018-12-29T01:36:19.188Z,12.05
2018-12-29T01:39:07.439Z,12.98
2018-12-29T01:41:55.645Z,12.37
2018-12-29T01:44:43.891Z,12.55
2018-12-29T01:47:32.091Z,11.50
2018-12-29T01:50:20.175Z,11.48
2018-12-29T01:53:08.259Z,11.97
2018-12-29T01:55:37.053Z,10.58
2018-12-29T01:58:25.206Z,10.88
2018-12-29T02:01:13.301Z,10.95
2018-12-29T02:04:01.451Z,11.38
2018-12-29T02:06:49.509Z,10.08
2018-12-29T02:09:37.595Z,9.73
2018-12-29T02:12:25.612Z,11.08
2018-12-29T02:15:13.652Z,8.93
2018-12-29T02:18:01.707Z,9.00
2018-12-29T02:20:49.783Z,8.33
2018-12-29T02:23:30.419Z,8.33
2018-12-29T02:26:11.627Z,8.28
2018-12-29T02:28:52.812Z,9.35
2018-12-29T02:31:34.150Z,8.98
2018-12-29T02:34:15.087Z,7.62
2018-12-29T02:36:55.934Z,8.33
2018-12-29T02:39:36.282Z,7.85
2018-12-29T02:42:17.076Z,8.08
2018-12-29T02:44:57.809Z,8.40
2018-12-29T02:47:39.178Z,9.00
2018-12-29T02:50:20.628Z,9.65
2018-12-29T02:53:01.687Z,9.73
2018-12-29T02:55:42.534Z,10.48
2018-12-29T02:58:23.125Z,10.32
2018-12-29T03:01:03.662Z,8.45
2018-12-29T03:03:44.774Z,7.22
2018-12-29T03:06:26.094Z,7.95
2018-12-29T03:12:06.160Z,13.93
2018-12-29T03:17:46.318Z,12.45
2018-12-29T03:20:27.248Z,11.53
2018-12-29T03:26:06.949Z,10.35
2018-12-29T03:31:47.240Z,10.93
2018-12-29T03:34:28.613Z,10.03
2018-12-29T03:40:22.755Z,13.30
2018-12-29T03:43:03.180Z,10.35
2018-12-29T03:45:49.040Z,12.05
2018-12-29T03:48:26.646Z,11.18
2018-12-29T03:54:20.412Z,13.00
2018-12-29T03:57:00.849Z,13.58
2018-12-29T03:59:41.292Z,11.53
2018-12-29T04:05:35.561Z,16.67
2018-12-29T04:08:16.871Z,14.50
2018-12-29T04:10:45.840Z,12.85
2018-12-29T04:13:33.525Z,12.82
2018-12-29T04:16:21.350Z,12.75
2018-12-29T04:19:09.187Z,12.07
2018-12-29T04:27:50.984Z,10.38
2018-12-29T04:30:32.055Z,12.47
2018-12-29T04:36:25.755Z,10.98
2018-12-29T04:39:06.954Z,10.88
2018-12-29T04:41:47.495Z,11.25
2018-12-29T04:44:28.029Z,9.88
2018-12-29T04:50:06.947Z,9.33
2018-12-29T04:55:46.275Z,9.15
2018-12-29T04:58:27.199Z,8.65
2018-12-29T05:04:06.779Z,10.05
2018-12-29T05:09:45.984Z,8.98
2018-12-29T05:12:26.728Z,8.18
2018-12-29T05:18:20.773Z,9.40
2018-12-29T05:21:02.226Z,9.48
2018-12-29T05:23:43.014Z,8.83
2018-12-29T05:26:23.585Z,8.78
2018-12-29T05:32:17.061Z,9.23
2018-12-29T05:34:58.126Z,9.05
2018-12-29T05:37:38.962Z,7.87
2018-12-29T05:43:32.938Z,8.93
2018-12-29T05:46:20.109Z,9.70
2018-12-29T05:48:56.659Z,8.95
2018-12-29T05:51:37.494Z,8.65
2018-12-29T05:57:30.863Z,9.38
2018-12-29T06:00:11.526Z,11.63
2018-12-29T06:02:52.801Z,9.88
2018-12-29T06:08:46.939Z,11.78
2018-12-29T06:11:27.872Z,12.75
2018-12-29T06:14:08.827Z,11.73
2018-12-29T06:16:49.728Z,11.80
2018-12-29T06:22:29.591Z,9.30
2018-12-29T06:25:10.550Z,10.53
2018-12-29T06:30:50.153Z,11.12
2018-12-29T06:36:29.956Z,9.70
2018-12-29T06:39:10.726Z,10.85
2018-12-29T06:45:04.799Z,11.95
2018-12-29T06:47:45.266Z,13.80
2018-12-29T06:50:26.167Z,12.37
2018-12-29T06:53:07.137Z,11.63
2018-12-29T06:59:01.265Z,14.53
2018-12-29T07:01:41.988Z,14.55
2018-12-29T07:04:22.821Z,11.43
2018-12-29T07:10:16.008Z,17.20
2018-12-29T07:12:56.840Z,17.12
2018-12-29T07:15:37.707Z,15.98
2018-12-29T07:18:18.974Z,15.70
2018-12-29T07:24:13.216Z,17.80
2018-12-29T07:26:54.016Z,20.77
2018-12-29T07:29:38.391Z,17.87
2018-12-29T07:32:18.196Z,18.75
2018-12-29T07:37:57.797Z,19.98
2018-12-29T07:40:39.222Z,17.17
2018-12-29T07:46:22.233Z,19.57
2018-12-29T07:49:03.198Z,17.75
2018-12-29T07:54:56.417Z,22.70
2018-12-29T07:57:37.467Z,24.12
2018-12-29T08:00:18.494Z,23.75
2018-12-29T08:06:12.453Z,26.30
2018-12-29T08:08:53.509Z,24.00
2018-12-29T08:11:34.409Z,22.98
2018-12-29T08:14:15.302Z,18.37
2018-12-29T08:20:07.930Z,25.68
2018-12-29T08:22:48.926Z,26.50
2018-12-29T08:25:30.392Z,31.35
2018-12-29T08:31:23.993Z,38.38
2018-12-29T08:34:04.545Z,28.32
2018-12-29T08:36:45.726Z,24.23
2018-12-29T08:39:26.858Z,23.85
2018-12-29T08:45:19.386Z,27.25
2018-12-29T08:48:00.095Z,26.12
2018-12-29T08:50:41.464Z,21.12
2018-12-29T08:53:22.425Z,21.37
2018-12-29T08:59:02.591Z,23.12
2018-12-29T09:04:42.061Z,20.80
2018-12-29T09:07:22.732Z,19.82
2018-12-29T09:13:02.585Z,18.07
2018-12-29T09:18:49.571Z,21.12
2018-12-29T09:21:24.666Z,19.50
2018-12-29T09:27:18.487Z,21.90
2018-12-29T09:29:59.257Z,22.02
2018-12-29T09:32:39.735Z,19.57
2018-12-29T09:35:20.278Z,20.35
2018-12-29T09:41:00.499Z,20.00
2018-12-29T09:46:54.991Z,23.52
2018-12-29T09:49:35.632Z,22.58
2018-12-29T09:52:04.430Z,22.10
2018-12-29T09:54:52.091Z,20.85
2018-12-29T09:57:39.712Z,22.95
2018-12-29T10:00:27.458Z,22.62
2018-12-29T10:03:15.243Z,20.68
2018-12-29T10:06:03.056Z,20.30
2018-12-29T10:08:50.746Z,22.50
2018-12-29T10:11:38.307Z,22.62
2018-12-29T10:14:25.949Z,21.10
2018-12-29T10:17:13.647Z,19.87
2018-12-29T10:20:01.340Z,23.07
2018-12-29T10:25:41.335Z,16.48
2018-12-29T10:31:21.135Z,16.20
2018-12-29T10:37:00.443Z,15.28
2018-12-29T10:39:41.201Z,14.83
2018-12-29T10:45:21.255Z,15.50
2018-12-29T10:51:03.895Z,15.68
2018-12-29T10:53:44.427Z,17.70
2018-12-29T10:56:23.107Z,15.83
2018-12-29T11:05:01.139Z,15.38
2018-12-29T11:10:45.184Z,16.00
2018-12-29T11:16:27.388Z,17.55
2018-12-29T11:22:09.989Z,18.27
2018-12-29T11:24:51.042Z,16.42
2018-12-29T11:30:30.947Z,17.50
2018-12-29T11:33:11.553Z,16.27
2018-12-29T11:39:05.749Z,18.15
2018-12-29T11:41:46.548Z,16.95
2018-12-29T11:47:29.118Z,17.07
2018-12-29T11:50:10.098Z,16.42
2018-12-29T11:58:51.540Z,16.17
2018-12-29T12:01:32.969Z,18.00
2018-12-29T12:04:14.461Z,14.07
2018-12-29T12:06:55.981Z,13.45
2018-12-29T12:09:37.413Z,12.40
2018-12-29T12:18:33.075Z,16.25
2018-12-29T12:21:14.328Z,15.78
2018-12-29T12:23:55.139Z,15.58
2018-12-29T12:26:35.839Z,17.32
2018-12-29T12:29:17.284Z,14.20
2018-12-29T12:35:18.551Z,15.63
2018-12-29T12:37:59.117Z,15.20
2018-12-29T12:40:39.888Z,26.80
2018-12-29T12:43:20.798Z,14.57
2018-12-29T12:49:01.153Z,15.40
2018-12-29T12:51:42.265Z,13.43
2018-12-29T12:57:25.586Z,13.13
2018-12-29T13:00:07.264Z,129.77
2018-12-29T13:06:01.357Z,56.37
2018-12-29T13:08:41.771Z,15.80
2018-12-29T13:11:22.519Z,111.93
2018-12-29T13:14:03.587Z,12.20
2018-12-29T13:22:44.790Z,14.60
2018-12-29T13:25:26.092Z,27.67
2018-12-29T13:31:20.261Z,18.00
2018-12-29T13:37:14.137Z,14.30
2018-12-29T13:39:55.537Z,16.13
2018-12-29T13:42:36.252Z,40.30
2018-12-29T13:48:30.253Z,15.30
2018-12-29T13:51:11.152Z,18.73
2018-12-29T13:53:52.373Z,14.60
2018-12-29T14:02:33.667Z,13.47
2018-12-29T14:07:56.989Z,16.37
2018-12-29T14:10:37.876Z,11.97
2018-12-29T14:19:07.833Z,23.83
2018-12-29T14:21:48.449Z,12.10
2018-12-29T14:27:42.563Z,41.90
2018-12-29T14:33:24.602Z,23.40
2018-12-29T14:36:12.686Z,19.63
2018-12-29T14:39:01.078Z,13.20
2018-12-29T14:41:50.545Z,25.10
2018-12-29T14:44:38.417Z,14.23
2018-12-29T14:47:26.139Z,12.77
2018-12-29T14:50:13.894Z,13.87
2018-12-29T14:53:01.849Z,14.40
2018-12-29T14:55:49.542Z,13.47
2018-12-29T14:58:39.105Z,20.50
2018-12-29T15:01:27.040Z,23.40
2018-12-29T15:04:14.848Z,20.90
2018-12-29T15:07:02.710Z,24.00
2018-12-29T15:09:52.261Z,21.53
2018-12-29T15:15:47.065Z,17.10
2018-12-29T15:18:43.631Z,15.57
2018-12-29T15:21:25.914Z,15.40
2018-12-29T15:30:06.902Z,15.60
2018-12-29T15:35:49.342Z,26.52
2018-12-29T15:41:29.072Z,16.73
2018-12-29T15:47:11.875Z,27.07
2018-12-29T15:52:52.070Z,42.93
2018-12-29T15:58:35.116Z,31.95
2018-12-29T16:04:29.024Z,44.08
2018-12-29T16:07:10.675Z,44.35
2018-12-29T16:09:52.843Z,64.22
2018-12-29T16:15:46.301Z,96.63
2018-12-29T16:18:27.049Z,74.47
2018-12-29T16:20:56.770Z,36.42
2018-12-29T16:26:50.143Z,33.13
2018-12-29T16:29:30.662Z,35.23
2018-12-29T16:32:11.237Z,34.92
2018-12-29T16:40:57.663Z,42.40
2018-12-29T16:46:45.562Z,46.73
2018-12-29T16:49:26.887Z,48.15
2018-12-29T16:52:07.942Z,33.13
2018-12-29T16:54:49.205Z,33.88
2018-12-29T17:00:42.437Z,40.78
2018-12-29T17:03:23.761Z,39.63
2018-12-29T17:06:04.482Z,35.50
2018-12-29T17:08:45.636Z,35.50
2018-12-29T17:14:25.861Z,27.65
2018-12-29T17:20:05.722Z,40.92
2018-12-29T17:22:47.117Z,38.85
2018-12-29T17:28:26.935Z,27.70
2018-12-29T17:31:07.775Z,31.05
2018-12-29T17:37:01.569Z,22.62
2018-12-29T17:39:42.526Z,21.57
2018-12-29T17:42:23.307Z,20.90
2018-12-29T17:48:17.013Z,20.52
2018-12-29T17:50:57.923Z,23.25
2018-12-29T17:53:38.915Z,22.60
2018-12-29T17:56:19.780Z,18.05
2018-12-29T18:02:01.000Z,62.95
2018-12-29T18:04:50.862Z,32.93
2018-12-29T18:07:38.961Z,30.85
2018-12-29T18:10:27.005Z,53.98
2018-12-29T18:13:15.339Z,54.42
2018-12-29T18:16:03.592Z,38.92
2018-12-29T18:18:51.720Z,39.18
2018-12-29T18:21:39.903Z,41.02
2018-12-29T18:24:28.237Z,38.98
2018-12-29T18:27:16.280Z,39.50
2018-12-29T18:30:04.624Z,29.45
2018-12-29T18:32:52.918Z,29.98
2018-12-29T18:35:41.353Z,30.75
2018-12-29T18:38:29.822Z,34.63
2018-12-29T18:41:17.982Z,40.35
2018-12-29T18:44:06.012Z,46.83
2018-12-29T18:46:54.133Z,51.95
2018-12-29T18:49:42.420Z,63.78
2018-12-29T18:52:30.478Z,54.95
2018-12-29T18:55:18.716Z,57.98
2018-12-29T18:58:08.865Z,42.98
2018-12-29T19:00:58.686Z,34.73
2018-12-29T19:03:46.868Z,27.48
2018-12-29T19:06:35.015Z,22.50
2018-12-29T19:09:23.582Z,22.15
2018-12-29T19:12:11.667Z,27.05
2018-12-29T19:14:59.984Z,33.00
2018-12-29T19:17:50.107Z,38.35
2018-12-29T19:20:39.917Z,36.73
2018-12-29T19:23:22.123Z,32.55
2018-12-29T19:26:03.692Z,25.32
2018-12-29T19:28:46.107Z,27.13
2018-12-29T19:31:27.083Z,25.62
2018-12-29T19:37:06.456Z,32.42
2018-12-29T19:42:46.634Z,27.17
2018-12-29T19:45:27.113Z,24.63
2018-12-29T19:51:21.378Z,22.05
2018-12-29T19:54:01.893Z,21.50
2018-12-29T19:56:42.954Z,25.57
2018-12-29T20:02:23.116Z,25.32
2018-12-29T20:04:52.292Z,26.05
2018-12-29T20:07:41.726Z,26.73
2018-12-29T20:10:29.549Z,22.02
2018-12-29T20:13:17.303Z,30.60
2018-12-29T20:16:05.089Z,27.65
2018-12-29T20:18:52.791Z,32.48
2018-12-29T20:21:40.614Z,31.12
2018-12-29T20:30:18.570Z,18.67
2018-12-29T20:36:12.559Z,17.77
2018-12-29T20:38:53.255Z,20.80
2018-12-29T20:41:34.797Z,19.37
2018-12-29T20:44:15.520Z,17.05
2018-12-29T20:49:43.205Z,17.32
2018-12-29T20:52:31.064Z,18.02
2018-12-29T20:55:19.070Z,18.40
2018-12-29T20:58:06.741Z,21.42
2018-12-29T21:00:54.826Z,30.25
2018-12-29T21:03:42.674Z,22.42
2018-12-29T21:06:30.490Z,18.90
2018-12-29T21:09:18.402Z,24.20
2018-12-29T21:12:06.099Z,26.20
2018-12-29T21:14:53.754Z,25.37
2018-12-29T21:17:41.606Z,21.15
2018-12-29T21:20:29.436Z,20.05
2018-12-29T21:26:00.462Z,18.02
2018-12-29T21:28:48.315Z,23.95
2018-12-29T21:31:37.895Z,18.40
2018-12-29T21:34:26.019Z,17.35
2018-12-29T21:37:13.831Z,20.85
2018-12-29T21:40:01.618Z,24.92
2018-12-29T21:42:49.349Z,23.57
2018-12-29T21:45:37.068Z,21.62
2018-12-29T21:48:24.831Z,21.55
2018-12-29T21:51:12.671Z,20.75
2018-12-29T21:54:00.773Z,21.82
2018-12-29T21:56:48.468Z,25.62
2018-12-29T21:59:36.296Z,25.60
2018-12-29T22:02:24.237Z,25.85
2018-12-29T22:05:12.207Z,24.30
2018-12-29T22:08:01.615Z,23.42
2018-12-29T22:10:49.353Z,26.27
2018-12-29T22:13:37.158Z,24.63
2018-12-29T22:16:24.999Z,24.57
2018-12-29T22:19:12.714Z,25.10
2018-12-29T22:22:00.546Z,23.50
2018-12-29T22:30:38.270Z,20.50
2018-12-29T22:33:19.767Z,18.25
2018-12-29T22:39:12.708Z,23.30
2018-12-29T22:41:53.578Z,21.12
2018-12-29T22:44:34.222Z,17.57
2018-12-29T22:50:27.235Z,21.37
2018-12-29T22:53:08.771Z,19.92
2018-12-29T22:55:50.507Z,16.55
2018-12-29T22:58:31.847Z,16.70
2018-12-29T23:04:11.707Z,15.95
2018-12-29T23:10:05.090Z,22.95
2018-12-29T23:12:46.402Z,16.52
2018-12-29T23:15:27.616Z,16.07
2018-12-29T23:18:08.108Z,14.78
2018-12-29T23:23:48.531Z,14.53
2018-12-29T23:29:28.076Z,15.03
2018-12-29T23:32:08.874Z,12.80
2018-12-29T23:38:02.878Z,14.05
2018-12-29T23:40:43.445Z,14.73
2018-12-29T23:43:24.421Z,12.75
2018-12-29T23:49:04.343Z,12.63
2018-12-29T23:51:44.975Z,11.40
2018-12-29T23:57:39.129Z,13.25
